sensor_id;sensor_type;location;lat;lon;timestamp;temperature;humidity
20866;DHT22;10593;48.398;10.698;2023-04-23T00:00:05;19.30;48.30
20866;DHT22;10593;48.398;10.698;2023-04-23T00:02:33;19.30;48.30
20866;DHT22;10593;48.398;10.698;2023-04-23T00:05:04;19.30;48.20
20866;DHT22;10593;48.398;10.698;2023-04-23T00:07:32;19.30;48.30
20866;DHT22;10593;48.398;10.698;2023-04-23T00:09:59;19.30;48.20
20866;DHT22;10593;48.398;10.698;2023-04-23T00:12:27;19.30;48.20
20866;DHT22;10593;48.398;10.698;2023-04-23T00:14:53;19.30;48.10
20866;DHT22;10593;48.398;10.698;2023-04-23T00:17:19;19.30;48.00
20866;DHT22;10593;48.398;10.698;2023-04-23T00:19:45;19.20;47.90
20866;DHT22;10593;48.398;10.698;2023-04-23T00:22:12;19.20;47.90
20866;DHT22;10593;48.398;10.698;2023-04-23T00:24:46;19.20;48.00
20866;DHT22;10593;48.398;10.698;2023-04-23T00:27:12;19.20;48.00
20866;DHT22;10593;48.398;10.698;2023-04-23T00:29:38;19.10;48.00
20866;DHT22;10593;48.398;10.698;2023-04-23T00:32:05;19.20;48.20
20866;DHT22;10593;48.398;10.698;2023-04-23T00:34:30;19.20;48.30
20866;DHT22;10593;48.398;10.698;2023-04-23T00:36:56;19.20;48.30
20866;DHT22;10593;48.398;10.698;2023-04-23T00:39:22;19.20;48.40
20866;DHT22;10593;48.398;10.698;2023-04-23T00:41:47;19.10;48.30
20866;DHT22;10593;48.398;10.698;2023-04-23T00:44:13;19.10;48.30
20866;DHT22;10593;48.398;10.698;2023-04-23T00:46:39;19.10;48.40
20866;DHT22;10593;48.398;10.698;2023-04-23T00:49:05;19.10;48.40
20866;DHT22;10593;48.398;10.698;2023-04-23T00:51:30;19.10;48.60
20866;DHT22;10593;48.398;10.698;2023-04-23T00:53:56;19.00;48.60
20866;DHT22;10593;48.398;10.698;2023-04-23T00:56:23;19.00;48.60
20866;DHT22;10593;48.398;10.698;2023-04-23T00:58:50;19.00;48.60
20866;DHT22;10593;48.398;10.698;2023-04-23T01:01:17;19.00;48.60
20866;DHT22;10593;48.398;10.698;2023-04-23T01:03:46;19.00;48.60
20866;DHT22;10593;48.398;10.698;2023-04-23T01:06:17;18.90;48.50
20866;DHT22;10593;48.398;10.698;2023-04-23T01:08:44;18.90;48.50
20866;DHT22;10593;48.398;10.698;2023-04-23T01:11:14;18.90;48.50
20866;DHT22;10593;48.398;10.698;2023-04-23T01:13:41;18.90;48.70
20866;DHT22;10593;48.398;10.698;2023-04-23T01:16:08;18.90;48.70
20866;DHT22;10593;48.398;10.698;2023-04-23T01:18:34;18.90;48.90
20866;DHT22;10593;48.398;10.698;2023-04-23T01:21:00;18.90;48.90
20866;DHT22;10593;48.398;10.698;2023-04-23T01:23:27;18.90;49.00
20866;DHT22;10593;48.398;10.698;2023-04-23T01:25:53;18.80;48.90
20866;DHT22;10593;48.398;10.698;2023-04-23T01:28:20;18.80;49.00
20866;DHT22;10593;48.398;10.698;2023-04-23T01:30:46;18.80;49.00
20866;DHT22;10593;48.398;10.698;2023-04-23T01:33:13;18.80;49.10
20866;DHT22;10593;48.398;10.698;2023-04-23T01:35:40;18.80;49.20
20866;DHT22;10593;48.398;10.698;2023-04-23T01:38:13;18.80;49.10
20866;DHT22;10593;48.398;10.698;2023-04-23T01:40:39;18.80;49.20
20866;DHT22;10593;48.398;10.698;2023-04-23T01:43:05;18.70;49.00
20866;DHT22;10593;48.398;10.698;2023-04-23T01:45:32;18.70;49.00
20866;DHT22;10593;48.398;10.698;2023-04-23T01:47:59;18.70;49.10
20866;DHT22;10593;48.398;10.698;2023-04-23T01:50:25;18.70;49.10
20866;DHT22;10593;48.398;10.698;2023-04-23T01:52:52;18.70;49.10
20866;DHT22;10593;48.398;10.698;2023-04-23T01:55:17;18.70;49.60
20866;DHT22;10593;48.398;10.698;2023-04-23T01:57:44;18.70;49.10
20866;DHT22;10593;48.398;10.698;2023-04-23T02:00:12;18.70;49.20
20866;DHT22;10593;48.398;10.698;2023-04-23T02:02:40;18.60;49.10
20866;DHT22;10593;48.398;10.698;2023-04-23T02:05:16;18.60;49.10
20866;DHT22;10593;48.398;10.698;2023-04-23T02:07:44;18.60;49.20
20866;DHT22;10593;48.398;10.698;2023-04-23T02:10:11;18.60;49.20
20866;DHT22;10593;48.398;10.698;2023-04-23T02:12:37;18.60;49.20
20866;DHT22;10593;48.398;10.698;2023-04-23T02:15:05;18.60;49.20
20866;DHT22;10593;48.398;10.698;2023-04-23T02:17:32;18.50;49.20
20866;DHT22;10593;48.398;10.698;2023-04-23T02:19:58;18.50;49.20
20866;DHT22;10593;48.398;10.698;2023-04-23T02:22:24;18.50;49.30
20866;DHT22;10593;48.398;10.698;2023-04-23T02:24:51;18.50;49.30
20866;DHT22;10593;48.398;10.698;2023-04-23T02:27:17;18.50;49.40
20866;DHT22;10593;48.398;10.698;2023-04-23T02:29:44;18.50;49.50
20866;DHT22;10593;48.398;10.698;2023-04-23T02:32:10;18.50;49.50
20866;DHT22;10593;48.398;10.698;2023-04-23T02:34:36;18.50;49.50
20866;DHT22;10593;48.398;10.698;2023-04-23T02:37:02;18.50;49.50
20866;DHT22;10593;48.398;10.698;2023-04-23T02:39:29;18.50;49.50
20866;DHT22;10593;48.398;10.698;2023-04-23T02:41:56;18.50;49.60
20866;DHT22;10593;48.398;10.698;2023-04-23T02:44:23;18.50;49.60
20866;DHT22;10593;48.398;10.698;2023-04-23T02:46:50;18.40;49.60
20866;DHT22;10593;48.398;10.698;2023-04-23T02:49:16;18.50;49.80
20866;DHT22;10593;48.398;10.698;2023-04-23T02:51:44;18.40;49.80
20866;DHT22;10593;48.398;10.698;2023-04-23T02:54:10;18.40;49.80
20866;DHT22;10593;48.398;10.698;2023-04-23T02:56:36;18.40;50.30
20866;DHT22;10593;48.398;10.698;2023-04-23T02:59:02;18.40;49.90
20866;DHT22;10593;48.398;10.698;2023-04-23T03:01:28;18.40;50.00
20866;DHT22;10593;48.398;10.698;2023-04-23T03:03:54;18.40;50.00
20866;DHT22;10593;48.398;10.698;2023-04-23T03:06:20;18.30;50.00
20866;DHT22;10593;48.398;10.698;2023-04-23T03:08:46;18.30;50.10
20866;DHT22;10593;48.398;10.698;2023-04-23T03:11:11;18.30;50.30
20866;DHT22;10593;48.398;10.698;2023-04-23T03:13:37;18.30;50.30
20866;DHT22;10593;48.398;10.698;2023-04-23T03:16:03;18.30;50.30
20866;DHT22;10593;48.398;10.698;2023-04-23T03:18:28;18.30;50.50
20866;DHT22;10593;48.398;10.698;2023-04-23T03:20:56;18.20;50.60
20866;DHT22;10593;48.398;10.698;2023-04-23T03:23:22;18.30;50.80
20866;DHT22;10593;48.398;10.698;2023-04-23T03:25:51;18.30;50.90
20866;DHT22;10593;48.398;10.698;2023-04-23T03:28:17;18.20;51.00
20866;DHT22;10593;48.398;10.698;2023-04-23T03:30:43;18.30;51.10
20866;DHT22;10593;48.398;10.698;2023-04-23T03:33:08;18.20;51.10
20866;DHT22;10593;48.398;10.698;2023-04-23T03:35:34;18.20;51.10
20866;DHT22;10593;48.398;10.698;2023-04-23T03:38:00;18.20;51.20
20866;DHT22;10593;48.398;10.698;2023-04-23T03:40:26;18.20;51.30
20866;DHT22;10593;48.398;10.698;2023-04-23T03:42:51;18.20;51.90
20866;DHT22;10593;48.398;10.698;2023-04-23T03:45:18;18.20;51.30
20866;DHT22;10593;48.398;10.698;2023-04-23T03:47:43;18.20;51.40
20866;DHT22;10593;48.398;10.698;2023-04-23T03:50:09;18.10;51.30
20866;DHT22;10593;48.398;10.698;2023-04-23T03:52:37;18.10;51.30
20866;DHT22;10593;48.398;10.698;2023-04-23T03:55:03;18.10;51.40
20866;DHT22;10593;48.398;10.698;2023-04-23T03:57:29;18.10;51.50
20866;DHT22;10593;48.398;10.698;2023-04-23T03:59:54;18.10;51.60
20866;DHT22;10593;48.398;10.698;2023-04-23T04:02:21;18.10;51.60
20866;DHT22;10593;48.398;10.698;2023-04-23T04:04:47;18.10;51.60
20866;DHT22;10593;48.398;10.698;2023-04-23T04:07:16;18.10;51.70
20866;DHT22;10593;48.398;10.698;2023-04-23T04:09:42;18.10;51.80
20866;DHT22;10593;48.398;10.698;2023-04-23T04:12:08;18.00;51.80
20866;DHT22;10593;48.398;10.698;2023-04-23T04:14:34;18.00;51.90
20866;DHT22;10593;48.398;10.698;2023-04-23T04:16:59;18.00;52.00
20866;DHT22;10593;48.398;10.698;2023-04-23T04:19:25;18.00;52.00
20866;DHT22;10593;48.398;10.698;2023-04-23T04:21:51;18.00;52.10
20866;DHT22;10593;48.398;10.698;2023-04-23T04:24:17;18.00;52.20
20866;DHT22;10593;48.398;10.698;2023-04-23T04:26:43;18.00;52.20
20866;DHT22;10593;48.398;10.698;2023-04-23T04:29:09;18.00;52.30
20866;DHT22;10593;48.398;10.698;2023-04-23T04:31:36;17.90;52.20
20866;DHT22;10593;48.398;10.698;2023-04-23T04:34:02;18.00;52.40
20866;DHT22;10593;48.398;10.698;2023-04-23T04:36:28;17.90;52.40
20866;DHT22;10593;48.398;10.698;2023-04-23T04:38:54;17.90;52.40
20866;DHT22;10593;48.398;10.698;2023-04-23T04:41:23;18.00;52.60
20866;DHT22;10593;48.398;10.698;2023-04-23T04:43:50;17.90;52.50
20866;DHT22;10593;48.398;10.698;2023-04-23T04:46:16;17.90;52.60
20866;DHT22;10593;48.398;10.698;2023-04-23T04:48:47;17.90;52.70
20866;DHT22;10593;48.398;10.698;2023-04-23T04:51:13;17.90;52.70
20866;DHT22;10593;48.398;10.698;2023-04-23T04:53:39;17.90;52.80
20866;DHT22;10593;48.398;10.698;2023-04-23T04:56:04;17.90;52.80
20866;DHT22;10593;48.398;10.698;2023-04-23T04:58:30;17.90;52.80
20866;DHT22;10593;48.398;10.698;2023-04-23T05:00:57;17.90;52.80
20866;DHT22;10593;48.398;10.698;2023-04-23T05:03:23;17.90;52.80
20866;DHT22;10593;48.398;10.698;2023-04-23T05:05:50;17.80;52.80
20866;DHT22;10593;48.398;10.698;2023-04-23T05:08:17;17.90;52.90
20866;DHT22;10593;48.398;10.698;2023-04-23T05:10:43;17.90;53.00
20866;DHT22;10593;48.398;10.698;2023-04-23T05:13:09;17.90;53.00
20866;DHT22;10593;48.398;10.698;2023-04-23T05:15:35;17.80;52.90
20866;DHT22;10593;48.398;10.698;2023-04-23T05:18:04;17.80;53.00
20866;DHT22;10593;48.398;10.698;2023-04-23T05:20:30;17.80;53.10
20866;DHT22;10593;48.398;10.698;2023-04-23T05:22:56;17.80;53.10
20866;DHT22;10593;48.398;10.698;2023-04-23T05:25:26;17.80;53.10
20866;DHT22;10593;48.398;10.698;2023-04-23T05:27:53;17.80;53.10
20866;DHT22;10593;48.398;10.698;2023-04-23T05:30:19;17.80;53.20
20866;DHT22;10593;48.398;10.698;2023-04-23T05:32:45;17.80;53.20
20866;DHT22;10593;48.398;10.698;2023-04-23T05:35:10;17.70;53.20
20866;DHT22;10593;48.398;10.698;2023-04-23T05:37:36;17.80;53.30
20866;DHT22;10593;48.398;10.698;2023-04-23T05:40:02;17.70;53.30
20866;DHT22;10593;48.398;10.698;2023-04-23T05:42:30;17.70;53.40
20866;DHT22;10593;48.398;10.698;2023-04-23T05:44:56;17.70;53.40
20866;DHT22;10593;48.398;10.698;2023-04-23T05:47:22;17.70;53.40
20866;DHT22;10593;48.398;10.698;2023-04-23T05:49:48;17.70;53.50
20866;DHT22;10593;48.398;10.698;2023-04-23T05:52:14;17.70;53.50
20866;DHT22;10593;48.398;10.698;2023-04-23T05:54:40;17.70;53.50
20866;DHT22;10593;48.398;10.698;2023-04-23T05:57:06;17.70;53.60
20866;DHT22;10593;48.398;10.698;2023-04-23T05:59:33;17.70;53.60
20866;DHT22;10593;48.398;10.698;2023-04-23T06:01:59;17.60;53.50
20866;DHT22;10593;48.398;10.698;2023-04-23T06:04:24;17.70;53.70
20866;DHT22;10593;48.398;10.698;2023-04-23T06:06:51;17.70;53.70
20866;DHT22;10593;48.398;10.698;2023-04-23T06:09:16;17.60;53.70
20866;DHT22;10593;48.398;10.698;2023-04-23T06:11:42;17.60;53.70
20866;DHT22;10593;48.398;10.698;2023-04-23T06:14:08;17.60;53.90
20866;DHT22;10593;48.398;10.698;2023-04-23T06:16:34;17.60;53.90
20866;DHT22;10593;48.398;10.698;2023-04-23T06:19:00;17.60;54.00
20866;DHT22;10593;48.398;10.698;2023-04-23T06:21:31;17.60;54.00
20866;DHT22;10593;48.398;10.698;2023-04-23T06:24:00;17.60;54.20
20866;DHT22;10593;48.398;10.698;2023-04-23T06:26:25;17.60;54.20
20866;DHT22;10593;48.398;10.698;2023-04-23T06:28:51;17.60;54.20
20866;DHT22;10593;48.398;10.698;2023-04-23T06:31:17;17.60;54.20
20866;DHT22;10593;48.398;10.698;2023-04-23T06:33:43;17.60;54.20
20866;DHT22;10593;48.398;10.698;2023-04-23T06:36:09;17.60;54.30
20866;DHT22;10593;48.398;10.698;2023-04-23T06:38:35;17.60;54.30
20866;DHT22;10593;48.398;10.698;2023-04-23T06:41:02;17.60;54.30
20866;DHT22;10593;48.398;10.698;2023-04-23T06:43:29;17.60;54.30
20866;DHT22;10593;48.398;10.698;2023-04-23T06:45:55;17.60;54.30
20866;DHT22;10593;48.398;10.698;2023-04-23T06:48:21;17.60;54.30
20866;DHT22;10593;48.398;10.698;2023-04-23T06:50:47;17.60;54.30
20866;DHT22;10593;48.398;10.698;2023-04-23T06:53:14;17.60;54.30
20866;DHT22;10593;48.398;10.698;2023-04-23T06:55:39;17.60;54.40
20866;DHT22;10593;48.398;10.698;2023-04-23T06:58:05;17.50;54.60
20866;DHT22;10593;48.398;10.698;2023-04-23T07:00:32;17.60;54.90
20866;DHT22;10593;48.398;10.698;2023-04-23T07:02:58;17.50;54.90
20866;DHT22;10593;48.398;10.698;2023-04-23T07:05:24;17.50;55.10
20866;DHT22;10593;48.398;10.698;2023-04-23T07:07:49;17.50;55.20
20866;DHT22;10593;48.398;10.698;2023-04-23T07:10:15;17.50;55.30
20866;DHT22;10593;48.398;10.698;2023-04-23T07:12:41;17.40;55.20
20866;DHT22;10593;48.398;10.698;2023-04-23T07:15:07;17.40;55.40
20866;DHT22;10593;48.398;10.698;2023-04-23T07:17:33;17.40;55.50
20866;DHT22;10593;48.398;10.698;2023-04-23T07:19:59;17.40;55.50
20866;DHT22;10593;48.398;10.698;2023-04-23T07:22:28;17.30;55.70
20866;DHT22;10593;48.398;10.698;2023-04-23T07:24:53;17.30;55.70
20866;DHT22;10593;48.398;10.698;2023-04-23T07:27:19;17.30;55.90
20866;DHT22;10593;48.398;10.698;2023-04-23T07:29:45;17.30;56.10
20866;DHT22;10593;48.398;10.698;2023-04-23T07:32:10;17.40;56.60
20866;DHT22;10593;48.398;10.698;2023-04-23T07:34:37;17.30;56.60
20866;DHT22;10593;48.398;10.698;2023-04-23T07:37:03;17.30;56.60
20866;DHT22;10593;48.398;10.698;2023-04-23T07:39:29;17.40;56.80
20866;DHT22;10593;48.398;10.698;2023-04-23T07:41:54;17.30;56.70
20866;DHT22;10593;48.398;10.698;2023-04-23T07:44:21;17.40;56.90
20866;DHT22;10593;48.398;10.698;2023-04-23T07:46:47;17.40;57.00
20866;DHT22;10593;48.398;10.698;2023-04-23T07:49:12;17.30;56.80
20866;DHT22;10593;48.398;10.698;2023-04-23T07:51:38;17.40;56.90
20866;DHT22;10593;48.398;10.698;2023-04-23T07:54:04;17.40;56.90
20866;DHT22;10593;48.398;10.698;2023-04-23T07:56:30;17.40;57.00
20866;DHT22;10593;48.398;10.698;2023-04-23T07:58:57;17.40;57.20
20866;DHT22;10593;48.398;10.698;2023-04-23T08:01:24;17.40;57.30
20866;DHT22;10593;48.398;10.698;2023-04-23T08:03:50;17.40;57.40
20866;DHT22;10593;48.398;10.698;2023-04-23T08:06:15;17.40;57.60
20866;DHT22;10593;48.398;10.698;2023-04-23T08:08:43;17.40;57.70
20866;DHT22;10593;48.398;10.698;2023-04-23T08:11:09;17.40;57.80
20866;DHT22;10593;48.398;10.698;2023-04-23T08:13:35;17.40;57.70
20866;DHT22;10593;48.398;10.698;2023-04-23T08:16:01;17.50;57.80
20866;DHT22;10593;48.398;10.698;2023-04-23T08:18:27;17.40;57.80
20866;DHT22;10593;48.398;10.698;2023-04-23T08:20:53;17.50;58.00
20866;DHT22;10593;48.398;10.698;2023-04-23T08:23:19;17.40;58.10
20866;DHT22;10593;48.398;10.698;2023-04-23T08:25:45;17.50;58.10
20866;DHT22;10593;48.398;10.698;2023-04-23T08:28:10;17.50;58.60
20866;DHT22;10593;48.398;10.698;2023-04-23T08:30:36;17.50;58.80
20866;DHT22;10593;48.398;10.698;2023-04-23T08:33:02;17.50;58.70
20866;DHT22;10593;48.398;10.698;2023-04-23T08:35:27;17.60;58.70
20866;DHT22;10593;48.398;10.698;2023-04-23T08:37:53;17.60;58.80
20866;DHT22;10593;48.398;10.698;2023-04-23T08:40:19;17.70;58.80
20866;DHT22;10593;48.398;10.698;2023-04-23T08:42:53;17.70;59.30
20866;DHT22;10593;48.398;10.698;2023-04-23T08:45:23;17.70;58.70
20866;DHT22;10593;48.398;10.698;2023-04-23T08:47:49;17.70;58.60
20866;DHT22;10593;48.398;10.698;2023-04-23T08:50:17;17.80;58.50
20866;DHT22;10593;48.398;10.698;2023-04-23T08:52:51;17.80;58.30
20866;DHT22;10593;48.398;10.698;2023-04-23T08:55:18;17.80;58.20
20866;DHT22;10593;48.398;10.698;2023-04-23T08:57:45;17.90;58.30
20866;DHT22;10593;48.398;10.698;2023-04-23T09:00:13;17.80;58.20
20866;DHT22;10593;48.398;10.698;2023-04-23T09:02:43;17.90;58.30
20866;DHT22;10593;48.398;10.698;2023-04-23T09:05:11;17.90;58.30
20866;DHT22;10593;48.398;10.698;2023-04-23T09:07:38;17.90;58.30
20866;DHT22;10593;48.398;10.698;2023-04-23T09:10:06;17.90;58.20
20866;DHT22;10593;48.398;10.698;2023-04-23T09:12:35;18.00;58.10
20866;DHT22;10593;48.398;10.698;2023-04-23T09:15:02;18.00;57.90
20866;DHT22;10593;48.398;10.698;2023-04-23T09:17:35;18.00;58.00
20866;DHT22;10593;48.398;10.698;2023-04-23T09:20:10;18.00;58.00
20866;DHT22;10593;48.398;10.698;2023-04-23T09:22:48;18.10;58.10
20866;DHT22;10593;48.398;10.698;2023-04-23T09:25:20;18.10;58.50
20866;DHT22;10593;48.398;10.698;2023-04-23T09:27:48;18.10;58.60
20866;DHT22;10593;48.398;10.698;2023-04-23T09:30:16;18.10;58.90
20866;DHT22;10593;48.398;10.698;2023-04-23T09:32:44;18.20;59.40
20866;DHT22;10593;48.398;10.698;2023-04-23T09:35:17;18.20;58.70
20866;DHT22;10593;48.398;10.698;2023-04-23T09:37:49;18.20;58.20
20866;DHT22;10593;48.398;10.698;2023-04-23T09:40:19;18.30;58.20
20866;DHT22;10593;48.398;10.698;2023-04-23T09:42:48;18.30;58.00
20866;DHT22;10593;48.398;10.698;2023-04-23T09:45:15;18.30;57.80
20866;DHT22;10593;48.398;10.698;2023-04-23T09:50:19;18.40;57.70
20866;DHT22;10593;48.398;10.698;2023-04-23T09:52:56;18.40;58.00
20866;DHT22;10593;48.398;10.698;2023-04-23T09:55:32;18.40;58.20
20866;DHT22;10593;48.398;10.698;2023-04-23T09:58:14;18.50;58.10
20866;DHT22;10593;48.398;10.698;2023-04-23T10:00:40;18.50;57.70
20866;DHT22;10593;48.398;10.698;2023-04-23T10:03:07;18.50;57.50
20866;DHT22;10593;48.398;10.698;2023-04-23T10:05:41;18.50;57.10
20866;DHT22;10593;48.398;10.698;2023-04-23T10:08:07;18.60;56.70
20866;DHT22;10593;48.398;10.698;2023-04-23T10:10:35;18.60;56.80
20866;DHT22;10593;48.398;10.698;2023-04-23T10:13:01;18.60;56.70
20866;DHT22;10593;48.398;10.698;2023-04-23T10:15:27;18.60;56.60
20866;DHT22;10593;48.398;10.698;2023-04-23T10:17:53;18.60;56.50
20866;DHT22;10593;48.398;10.698;2023-04-23T10:20:21;18.60;56.60
20866;DHT22;10593;48.398;10.698;2023-04-23T10:22:48;18.70;56.50
20866;DHT22;10593;48.398;10.698;2023-04-23T10:25:14;18.70;56.40
20866;DHT22;10593;48.398;10.698;2023-04-23T10:27:42;18.70;56.20
20866;DHT22;10593;48.398;10.698;2023-04-23T10:30:11;18.70;56.20
20866;DHT22;10593;48.398;10.698;2023-04-23T10:32:39;18.70;56.30
20866;DHT22;10593;48.398;10.698;2023-04-23T10:35:07;18.80;55.90
20866;DHT22;10593;48.398;10.698;2023-04-23T10:37:35;18.80;55.70
20866;DHT22;10593;48.398;10.698;2023-04-23T10:40:09;18.80;55.20
20866;DHT22;10593;48.398;10.698;2023-04-23T10:42:39;18.80;55.10
20866;DHT22;10593;48.398;10.698;2023-04-23T10:45:13;18.80;55.20
20866;DHT22;10593;48.398;10.698;2023-04-23T10:47:42;18.90;55.30
20866;DHT22;10593;48.398;10.698;2023-04-23T10:50:31;18.90;55.30
20866;DHT22;10593;48.398;10.698;2023-04-23T10:53:01;18.90;54.90
20866;DHT22;10593;48.398;10.698;2023-04-23T10:55:29;18.90;54.80
20866;DHT22;10593;48.398;10.698;2023-04-23T10:58:04;18.90;55.10
20866;DHT22;10593;48.398;10.698;2023-04-23T11:00:42;18.90;55.30
20866;DHT22;10593;48.398;10.698;2023-04-23T11:03:36;19.00;55.30
20866;DHT22;10593;48.398;10.698;2023-04-23T11:06:05;19.00;55.40
20866;DHT22;10593;48.398;10.698;2023-04-23T11:08:34;19.00;55.40
20866;DHT22;10593;48.398;10.698;2023-04-23T11:11:02;19.10;55.00
20866;DHT22;10593;48.398;10.698;2023-04-23T11:13:31;19.10;54.90
20866;DHT22;10593;48.398;10.698;2023-04-23T11:16:14;19.10;55.00
20866;DHT22;10593;48.398;10.698;2023-04-23T11:19:02;19.10;55.00
20866;DHT22;10593;48.398;10.698;2023-04-23T11:21:54;19.10;54.00
20866;DHT22;10593;48.398;10.698;2023-04-23T11:24:40;19.20;54.00
20866;DHT22;10593;48.398;10.698;2023-04-23T11:27:17;19.20;54.50
20866;DHT22;10593;48.398;10.698;2023-04-23T11:29:45;19.20;54.40
20866;DHT22;10593;48.398;10.698;2023-04-23T11:32:13;19.30;54.10
20866;DHT22;10593;48.398;10.698;2023-04-23T11:34:45;19.30;53.80
20866;DHT22;10593;48.398;10.698;2023-04-23T11:37:13;19.30;53.50
20866;DHT22;10593;48.398;10.698;2023-04-23T11:39:40;19.30;53.20
20866;DHT22;10593;48.398;10.698;2023-04-23T11:42:12;19.30;52.90
20866;DHT22;10593;48.398;10.698;2023-04-23T11:44:43;19.40;52.60
20866;DHT22;10593;48.398;10.698;2023-04-23T11:47:11;19.40;52.60
20866;DHT22;10593;48.398;10.698;2023-04-23T11:49:39;19.40;52.50
20866;DHT22;10593;48.398;10.698;2023-04-23T11:52:08;19.40;52.30
20866;DHT22;10593;48.398;10.698;2023-04-23T11:54:34;19.40;52.50
20866;DHT22;10593;48.398;10.698;2023-04-23T11:57:01;19.50;52.40
20866;DHT22;10593;48.398;10.698;2023-04-23T11:59:31;19.50;52.40
20866;DHT22;10593;48.398;10.698;2023-04-23T12:01:57;19.50;52.20
20866;DHT22;10593;48.398;10.698;2023-04-23T12:04:28;19.60;52.00
20866;DHT22;10593;48.398;10.698;2023-04-23T12:06:55;19.50;51.30
20866;DHT22;10593;48.398;10.698;2023-04-23T12:09:23;19.60;51.40
20866;DHT22;10593;48.398;10.698;2023-04-23T12:11:51;19.60;51.50
20866;DHT22;10593;48.398;10.698;2023-04-23T12:14:18;19.60;51.70
20866;DHT22;10593;48.398;10.698;2023-04-23T12:16:48;19.60;51.80
20866;DHT22;10593;48.398;10.698;2023-04-23T12:19:18;19.70;51.40
20866;DHT22;10593;48.398;10.698;2023-04-23T12:21:50;19.70;50.90
20866;DHT22;10593;48.398;10.698;2023-04-23T12:24:20;19.70;50.90
20866;DHT22;10593;48.398;10.698;2023-04-23T12:26:52;19.70;51.00
20866;DHT22;10593;48.398;10.698;2023-04-23T12:29:21;19.70;50.80
20866;DHT22;10593;48.398;10.698;2023-04-23T12:31:48;19.80;51.00
20866;DHT22;10593;48.398;10.698;2023-04-23T12:34:16;19.80;51.10
20866;DHT22;10593;48.398;10.698;2023-04-23T12:36:48;19.80;51.00
20866;DHT22;10593;48.398;10.698;2023-04-23T12:39:33;19.80;51.00
20866;DHT22;10593;48.398;10.698;2023-04-23T12:42:06;19.90;51.00
20866;DHT22;10593;48.398;10.698;2023-04-23T12:44:37;19.90;50.30
20866;DHT22;10593;48.398;10.698;2023-04-23T12:47:05;19.90;50.30
20866;DHT22;10593;48.398;10.698;2023-04-23T12:49:34;19.90;50.00
20866;DHT22;10593;48.398;10.698;2023-04-23T12:52:03;19.90;49.50
20866;DHT22;10593;48.398;10.698;2023-04-23T12:54:31;19.90;49.30
20866;DHT22;10593;48.398;10.698;2023-04-23T12:56:58;19.90;49.80
20866;DHT22;10593;48.398;10.698;2023-04-23T12:59:27;19.90;50.00
20866;DHT22;10593;48.398;10.698;2023-04-23T13:01:53;19.90;49.80
20866;DHT22;10593;48.398;10.698;2023-04-23T13:04:19;19.90;49.80
20866;DHT22;10593;48.398;10.698;2023-04-23T13:06:45;19.90;49.50
20866;DHT22;10593;48.398;10.698;2023-04-23T13:09:11;20.00;49.60
20866;DHT22;10593;48.398;10.698;2023-04-23T13:11:38;20.00;49.40
20866;DHT22;10593;48.398;10.698;2023-04-23T13:14:05;20.00;49.00
20866;DHT22;10593;48.398;10.698;2023-04-23T13:16:31;20.00;48.80
20866;DHT22;10593;48.398;10.698;2023-04-23T13:18:58;20.00;48.80
20866;DHT22;10593;48.398;10.698;2023-04-23T13:21:24;20.00;48.60
20866;DHT22;10593;48.398;10.698;2023-04-23T13:23:50;20.00;48.40
20866;DHT22;10593;48.398;10.698;2023-04-23T13:26:16;20.00;48.50
20866;DHT22;10593;48.398;10.698;2023-04-23T13:28:42;20.00;48.30
20866;DHT22;10593;48.398;10.698;2023-04-23T13:31:08;20.00;48.40
20866;DHT22;10593;48.398;10.698;2023-04-23T13:33:36;20.00;48.00
20866;DHT22;10593;48.398;10.698;2023-04-23T13:36:03;20.10;48.20
20866;DHT22;10593;48.398;10.698;2023-04-23T13:38:29;20.00;48.40
20866;DHT22;10593;48.398;10.698;2023-04-23T13:40:55;20.10;48.50
20866;DHT22;10593;48.398;10.698;2023-04-23T13:43:21;20.10;48.40
20866;DHT22;10593;48.398;10.698;2023-04-23T13:45:47;20.10;48.30
20866;DHT22;10593;48.398;10.698;2023-04-23T13:48:13;20.10;48.00
20866;DHT22;10593;48.398;10.698;2023-04-23T13:50:40;20.10;48.30
20866;DHT22;10593;48.398;10.698;2023-04-23T13:53:09;20.10;48.30
20866;DHT22;10593;48.398;10.698;2023-04-23T13:55:36;20.20;48.10
20866;DHT22;10593;48.398;10.698;2023-04-23T13:58:03;20.20;48.00
20866;DHT22;10593;48.398;10.698;2023-04-23T14:00:29;20.20;47.50
20866;DHT22;10593;48.398;10.698;2023-04-23T14:02:55;20.20;47.60
20866;DHT22;10593;48.398;10.698;2023-04-23T14:05:21;20.20;47.80
20866;DHT22;10593;48.398;10.698;2023-04-23T14:07:47;20.20;47.80
20866;DHT22;10593;48.398;10.698;2023-04-23T14:10:13;20.20;47.80
20866;DHT22;10593;48.398;10.698;2023-04-23T14:12:39;20.30;47.50
20866;DHT22;10593;48.398;10.698;2023-04-23T14:15:06;20.30;47.90
20866;DHT22;10593;48.398;10.698;2023-04-23T14:17:33;20.30;47.50
20866;DHT22;10593;48.398;10.698;2023-04-23T14:20:00;20.30;47.70
20866;DHT22;10593;48.398;10.698;2023-04-23T14:22:25;20.30;47.60
20866;DHT22;10593;48.398;10.698;2023-04-23T14:24:56;20.40;47.40
20866;DHT22;10593;48.398;10.698;2023-04-23T14:27:26;20.40;47.50
20866;DHT22;10593;48.398;10.698;2023-04-23T14:29:57;20.40;47.90
20866;DHT22;10593;48.398;10.698;2023-04-23T14:32:29;20.40;47.50
20866;DHT22;10593;48.398;10.698;2023-04-23T14:34:55;20.40;47.80
20866;DHT22;10593;48.398;10.698;2023-04-23T14:37:21;20.40;47.70
20866;DHT22;10593;48.398;10.698;2023-04-23T14:39:47;20.40;47.90
20866;DHT22;10593;48.398;10.698;2023-04-23T14:42:13;20.50;48.00
20866;DHT22;10593;48.398;10.698;2023-04-23T14:44:38;20.50;48.10
20866;DHT22;10593;48.398;10.698;2023-04-23T14:47:04;20.50;48.10
20866;DHT22;10593;48.398;10.698;2023-04-23T14:49:32;20.50;48.00
20866;DHT22;10593;48.398;10.698;2023-04-23T14:51:58;20.60;47.90
20866;DHT22;10593;48.398;10.698;2023-04-23T14:54:24;20.60;47.70
20866;DHT22;10593;48.398;10.698;2023-04-23T14:56:50;20.60;47.60
20866;DHT22;10593;48.398;10.698;2023-04-23T14:59:16;20.60;47.40
20866;DHT22;10593;48.398;10.698;2023-04-23T15:01:42;20.60;47.20
20866;DHT22;10593;48.398;10.698;2023-04-23T15:04:11;20.60;47.10
20866;DHT22;10593;48.398;10.698;2023-04-23T15:06:37;20.60;47.00
20866;DHT22;10593;48.398;10.698;2023-04-23T15:09:05;20.60;47.00
20866;DHT22;10593;48.398;10.698;2023-04-23T15:11:31;20.60;46.80
20866;DHT22;10593;48.398;10.698;2023-04-23T15:14:30;20.60;46.90
20866;DHT22;10593;48.398;10.698;2023-04-23T15:16:57;20.60;46.70
20866;DHT22;10593;48.398;10.698;2023-04-23T15:19:23;20.70;47.00